createdAt,value
2019-05-02T00:01:05.295Z,24.75
2019-05-02T00:03:36.007Z,23.70
2019-05-02T00:06:07.455Z,24.32
2019-05-02T00:08:37.392Z,24.43
2019-05-02T00:11:06.817Z,25.40
2019-05-02T00:13:36.154Z,24.20
2019-05-02T00:16:09.079Z,23.35
2019-05-02T00:18:37.081Z,24.82
2019-05-02T00:21:07.871Z,26.17
2019-05-02T00:23:37.014Z,26.40
2019-05-02T00:26:06.097Z,25.92
2019-05-02T00:28:35.175Z,26.80
2019-05-02T00:31:07.414Z,24.52
2019-05-02T00:33:35.939Z,26.00
2019-05-02T00:36:05.542Z,26.68
2019-05-02T00:38:38.620Z,26.57
2019-05-02T00:41:05.533Z,27.02
2019-05-02T00:43:36.347Z,26.97
2019-05-02T00:46:05.665Z,26.17
2019-05-02T00:48:36.369Z,28.15
2019-05-02T00:51:05.527Z,25.90
2019-05-02T00:53:34.619Z,27.27
2019-05-02T00:56:05.088Z,25.72
2019-05-02T00:58:34.664Z,26.85
2019-05-02T01:01:12.350Z,27.13
2019-05-02T01:03:47.223Z,27.22
2019-05-02T01:06:14.483Z,28.27
2019-05-02T01:08:44.798Z,27.75
2019-05-02T01:11:14.022Z,29.05
2019-05-02T01:13:43.081Z,28.23
2019-05-02T01:16:15.172Z,28.42
2019-05-02T01:18:43.462Z,28.50
2019-05-02T01:21:12.544Z,30.65
2019-05-02T01:23:41.602Z,29.92
2019-05-02T01:26:12.332Z,30.27
2019-05-02T01:28:59.594Z,28.90
2019-05-02T01:31:49.902Z,29.92
2019-05-02T01:34:19.382Z,29.65
2019-05-02T01:36:50.298Z,30.72
2019-05-02T01:39:19.384Z,28.62
2019-05-02T01:41:48.650Z,29.95
2019-05-02T01:44:17.720Z,29.75
2019-05-02T01:46:46.801Z,28.62
2019-05-02T01:49:16.810Z,29.85
2019-05-02T01:51:49.279Z,28.70
2019-05-02T01:54:18.131Z,29.12
2019-05-02T01:56:47.219Z,28.70
2019-05-02T01:59:16.295Z,30.12
2019-05-02T02:01:45.440Z,31.40
2019-05-02T02:04:16.295Z,31.93
2019-05-02T02:06:45.543Z,30.65
2019-05-02T02:09:14.605Z,31.82
2019-05-02T02:11:43.747Z,30.75
2019-05-02T02:14:17.980Z,31.35
2019-05-02T02:16:43.605Z,31.90
2019-05-02T02:19:17.242Z,31.80
2019-05-02T02:22:04.380Z,29.92
2019-05-02T02:24:38.514Z,30.88
2019-05-02T02:27:09.263Z,29.35
2019-05-02T02:29:39.167Z,31.37
2019-05-02T02:32:09.263Z,30.50
2019-05-02T02:34:38.362Z,31.70
2019-05-02T02:37:12.475Z,31.77
2019-05-02T02:39:38.245Z,30.82
2019-05-02T02:42:07.395Z,31.20
2019-05-02T02:44:52.918Z,30.85
2019-05-02T02:47:24.933Z,32.35
2019-05-02T02:49:56.023Z,32.15
2019-05-02T02:52:24.968Z,32.42
2019-05-02T02:54:54.052Z,33.60
2019-05-02T02:57:27.928Z,32.50
2019-05-02T03:00:06.417Z,30.48
2019-05-02T03:02:24.802Z,31.65
2019-05-02T03:04:54.046Z,32.03
2019-05-02T03:07:25.618Z,33.30
2019-05-02T03:09:59.554Z,33.28
2019-05-02T03:12:27.217Z,32.88
2019-05-02T03:15:01.132Z,33.67
2019-05-02T03:17:30.248Z,32.67
2019-05-02T03:20:01.761Z,32.90
2019-05-02T03:22:35.047Z,33.42
2019-05-02T03:25:00.975Z,32.83
2019-05-02T03:27:36.967Z,33.55
2019-05-02T03:30:01.016Z,32.75
2019-05-02T03:32:35.242Z,32.63
2019-05-02T03:35:01.440Z,31.87
2019-05-02T03:37:31.559Z,32.88
2019-05-02T03:40:00.895Z,33.95
2019-05-02T03:42:30.168Z,32.78
2019-05-02T03:45:04.382Z,31.97
2019-05-02T03:47:30.044Z,32.00
2019-05-02T03:49:59.760Z,33.15
2019-05-02T03:52:29.708Z,32.38
2019-05-02T03:54:59.098Z,31.55
2019-05-02T03:57:33.596Z,32.13
2019-05-02T03:59:59.078Z,32.17
2019-05-02T04:02:28.380Z,32.25
2019-05-02T04:05:00.559Z,31.52
2019-05-02T04:07:39.795Z,31.95
2019-05-02T04:10:00.246Z,30.43
2019-05-02T04:12:32.779Z,37.83
2019-05-02T04:15:00.816Z,30.82
2019-05-02T04:17:35.297Z,31.57
2019-05-02T04:20:09.405Z,30.92
2019-05-02T04:22:33.118Z,31.75
2019-05-02T04:25:06.097Z,30.17
2019-05-02T04:27:34.212Z,30.65
2019-05-02T04:30:11.262Z,31.33
2019-05-02T04:32:42.766Z,31.07
2019-05-02T04:35:09.567Z,31.37
2019-05-02T04:37:41.110Z,30.92
2019-05-02T04:40:12.288Z,30.52
2019-05-02T04:42:40.372Z,29.98
2019-05-02T04:45:21.750Z,29.10
2019-05-02T04:47:42.573Z,29.32
2019-05-02T04:50:17.820Z,30.12
2019-05-02T04:52:48.265Z,29.87
2019-05-02T04:55:21.324Z,29.80
2019-05-02T04:57:47.076Z,30.23
2019-05-02T05:00:18.415Z,29.20
2019-05-02T05:02:48.405Z,29.02
2019-05-02T05:05:25.676Z,28.67
2019-05-02T05:07:49.518Z,29.55
2019-05-02T05:10:18.744Z,28.83
2019-05-02T05:12:48.084Z,30.00
2019-05-02T05:15:33.721Z,29.40
2019-05-02T05:17:50.039Z,29.42
2019-05-02T05:20:18.924Z,28.02
2019-05-02T05:22:48.070Z,27.98
2019-05-02T05:25:21.716Z,27.67
2019-05-02T05:27:52.570Z,30.00
2019-05-02T05:30:21.577Z,28.45
2019-05-02T05:32:50.731Z,28.20
2019-05-02T05:35:19.802Z,28.60
2019-05-02T05:37:52.918Z,29.02
2019-05-02T05:40:22.506Z,28.85
2019-05-02T05:42:50.559Z,28.92
2019-05-02T05:45:19.698Z,29.70
2019-05-02T05:47:52.486Z,27.58
2019-05-02T05:50:19.662Z,27.13
2019-05-02T05:52:51.752Z,28.73
2019-05-02T05:55:24.080Z,27.20
2019-05-02T05:57:59.970Z,28.23
2019-05-02T06:00:23.134Z,27.05
2019-05-02T06:02:56.208Z,28.05
2019-05-02T06:05:22.978Z,28.52
2019-05-02T06:07:52.143Z,27.13
2019-05-02T06:10:21.235Z,27.67
2019-05-02T06:12:50.309Z,27.50
2019-05-02T06:15:19.383Z,28.92
2019-05-02T06:17:48.495Z,28.05
2019-05-02T06:20:17.767Z,27.85
2019-05-02T06:22:46.845Z,29.55
2019-05-02T06:25:16.641Z,30.68
2019-05-02T06:27:45.918Z,29.18
2019-05-02T06:30:15.611Z,30.00
2019-05-02T06:32:44.665Z,29.20
2019-05-02T06:35:17.214Z,28.77
2019-05-02T06:37:45.350Z,28.95
2019-05-02T06:40:15.893Z,28.45
2019-05-02T06:42:44.960Z,31.05
2019-05-02T06:45:15.273Z,29.37
2019-05-02T06:47:44.333Z,30.30
2019-05-02T06:50:14.081Z,30.40
2019-05-02T06:52:43.218Z,32.00
2019-05-02T06:55:12.721Z,30.40
2019-05-02T06:57:41.781Z,30.43
2019-05-02T07:00:11.778Z,32.20
2019-05-02T07:02:40.836Z,31.82
2019-05-02T07:05:10.678Z,32.48
2019-05-02T07:07:39.806Z,32.17
2019-05-02T07:10:09.229Z,29.85
2019-05-02T07:12:38.610Z,31.62
2019-05-02T07:15:11.093Z,31.07
2019-05-02T07:17:41.963Z,32.05
2019-05-02T07:20:11.526Z,31.25
2019-05-02T07:22:40.941Z,31.10
2019-05-02T07:25:10.578Z,31.00
2019-05-02T07:27:39.646Z,30.00
2019-05-02T07:30:11.026Z,29.60
2019-05-02T07:32:40.074Z,29.48
2019-05-02T07:35:09.712Z,29.70
2019-05-02T07:37:38.792Z,31.75
2019-05-02T07:40:12.057Z,29.95
2019-05-02T07:42:41.960Z,28.80
2019-05-02T07:45:11.439Z,28.92
2019-05-02T07:47:42.409Z,30.27
2019-05-02T07:50:12.096Z,28.65
2019-05-02T07:52:41.503Z,29.23
2019-05-02T07:55:11.107Z,29.23
2019-05-02T07:57:40.305Z,29.87
2019-05-02T08:00:10.783Z,28.65
2019-05-02T08:02:39.873Z,27.50
2019-05-02T08:05:09.296Z,28.70
2019-05-02T08:07:38.385Z,28.35
2019-05-02T08:10:07.927Z,27.85
2019-05-02T08:12:37.069Z,27.95
2019-05-02T08:15:13.329Z,28.75
2019-05-02T08:17:40.376Z,28.02
2019-05-02T08:20:13.595Z,28.05
2019-05-02T08:22:44.046Z,28.02
2019-05-02T08:25:11.875Z,29.52
2019-05-02T08:27:42.617Z,26.87
2019-05-02T08:30:14.551Z,27.40
2019-05-02T08:32:44.126Z,28.92
2019-05-02T08:35:13.547Z,29.25
2019-05-02T08:37:43.111Z,30.10
2019-05-02T08:40:12.540Z,27.22
2019-05-02T08:42:41.634Z,29.10
2019-05-02T08:45:11.151Z,28.15
2019-05-02T08:47:40.252Z,28.52
2019-05-02T08:50:09.794Z,28.02
2019-05-02T08:52:42.395Z,28.65
2019-05-02T08:55:11.084Z,29.00
2019-05-02T08:57:40.280Z,29.63
2019-05-02T09:00:12.762Z,29.65
2019-05-02T09:02:42.188Z,29.57
2019-05-02T09:05:11.522Z,28.75
2019-05-02T09:07:42.907Z,27.67
2019-05-02T09:10:12.038Z,29.95
2019-05-02T09:12:45.094Z,29.12
2019-05-02T09:15:12.660Z,30.27
2019-05-02T09:17:44.693Z,29.52
2019-05-02T09:20:18.734Z,30.60
2019-05-02T09:22:46.632Z,29.32
2019-05-02T09:25:16.560Z,27.50
2019-05-02T09:27:45.639Z,26.75
2019-05-02T09:30:17.075Z,30.23
2019-05-02T09:32:46.158Z,28.55
2019-05-02T09:35:15.262Z,30.15
2019-05-02T09:37:44.468Z,30.92
2019-05-02T09:40:16.634Z,29.75
2019-05-02T09:42:47.611Z,29.50
2019-05-02T09:45:18.059Z,29.42
2019-05-02T09:47:57.348Z,27.62
2019-05-02T09:50:20.697Z,29.50
2019-05-02T09:52:48.765Z,27.95
2019-05-02T09:55:18.303Z,29.67
2019-05-02T09:57:47.461Z,28.12
2019-05-02T10:00:36.281Z,27.25
2019-05-02T10:03:04.594Z,25.92
2019-05-02T10:05:33.865Z,25.92
2019-05-02T10:08:06.867Z,28.40
2019-05-02T10:10:37.270Z,27.02
2019-05-02T10:13:06.697Z,26.62
2019-05-02T10:15:35.858Z,26.93
2019-05-02T10:18:10.519Z,26.20
2019-05-02T10:20:37.546Z,24.63
2019-05-02T10:23:11.366Z,25.15
2019-05-02T10:25:38.837Z,23.40
2019-05-02T10:28:10.199Z,23.90
2019-05-02T10:30:39.713Z,23.62
2019-05-02T10:33:08.876Z,23.40
2019-05-02T10:35:41.475Z,23.10
2019-05-02T10:38:17.599Z,22.85
2019-05-02T10:40:42.446Z,24.92
2019-05-02T10:43:11.917Z,22.90
2019-05-02T10:45:47.273Z,23.12
2019-05-02T10:48:24.775Z,22.13
2019-05-02T10:50:46.219Z,23.20
2019-05-02T10:53:15.824Z,22.45
2019-05-02T10:55:45.650Z,23.42
2019-05-02T10:58:14.710Z,20.80
2019-05-02T11:00:45.465Z,18.62
2019-05-02T11:03:25.554Z,19.42
2019-05-02T11:05:57.852Z,19.87
2019-05-02T11:08:27.230Z,21.35
2019-05-02T11:10:56.320Z,20.02
2019-05-02T11:13:36.261Z,19.75
2019-05-02T11:16:22.204Z,18.62
2019-05-02T11:18:52.986Z,19.35
2019-05-02T11:21:22.867Z,19.35
2019-05-02T11:23:52.901Z,18.67
2019-05-02T11:26:24.989Z,18.35
2019-05-02T11:28:53.049Z,17.48
2019-05-02T11:31:22.448Z,18.00
2019-05-02T11:33:53.142Z,16.05
2019-05-02T11:36:22.753Z,16.57
2019-05-02T11:38:58.953Z,15.03
2019-05-02T11:41:22.822Z,15.25
2019-05-02T11:43:55.519Z,14.05
2019-05-02T11:46:22.721Z,15.28
2019-05-02T11:48:56.208Z,15.40
2019-05-02T11:51:22.832Z,14.85
2019-05-02T11:53:52.831Z,14.47
2019-05-02T11:56:22.410Z,14.23
2019-05-02T11:58:52.845Z,11.97
2019-05-02T12:01:35.465Z,13.28
2019-05-02T12:03:53.253Z,12.40
2019-05-02T12:06:22.721Z,11.35
2019-05-02T12:08:52.602Z,10.80
2019-05-02T12:11:22.868Z,10.40
2019-05-02T12:13:56.822Z,8.50
2019-05-02T12:16:23.415Z,9.20
2019-05-02T12:18:53.816Z,8.60
2019-05-02T12:21:23.443Z,10.00
2019-05-02T12:23:52.976Z,19.67
2019-05-02T12:26:22.321Z,22.90
2019-05-02T12:28:52.630Z,21.85
2019-05-02T12:31:27.292Z,22.35
2019-05-02T12:33:57.191Z,22.30
2019-05-02T12:36:26.291Z,21.90
2019-05-02T12:38:55.388Z,22.07
2019-05-02T12:41:25.294Z,22.07
2019-05-02T12:43:54.678Z,22.85
2019-05-02T12:46:23.748Z,22.02
2019-05-02T12:48:52.847Z,20.85
2019-05-02T12:51:22.651Z,20.48
2019-05-02T12:53:52.852Z,20.72
2019-05-02T12:56:22.901Z,20.05
2019-05-02T12:58:53.101Z,19.87
2019-05-02T13:01:22.387Z,19.30
2019-05-02T13:03:53.152Z,19.82
2019-05-02T13:06:22.220Z,20.88
2019-05-02T13:08:52.576Z,18.92
2019-05-02T13:11:37.012Z,20.12
2019-05-02T13:14:03.961Z,18.95
2019-05-02T13:16:33.703Z,19.67
2019-05-02T13:19:06.206Z,19.57
2019-05-02T13:21:42.156Z,18.77
2019-05-02T13:24:16.196Z,17.85
2019-05-02T13:26:43.021Z,18.77
2019-05-02T13:29:12.100Z,18.45
2019-05-02T13:31:45.883Z,19.12
2019-05-02T13:34:16.680Z,18.45
2019-05-02T13:36:51.889Z,17.57
2019-05-02T13:39:41.843Z,18.40
2019-05-02T13:42:12.566Z,18.73
2019-05-02T13:44:49.662Z,18.20
2019-05-02T13:47:21.841Z,17.80
2019-05-02T13:49:54.755Z,17.57
2019-05-02T13:52:22.639Z,17.70
2019-05-02T13:54:52.316Z,17.07
2019-05-02T13:57:21.906Z,17.87
2019-05-02T13:59:52.562Z,18.57
2019-05-02T14:02:42.795Z,18.25
2019-05-02T14:05:14.563Z,17.42
2019-05-02T14:07:48.150Z,16.48
2019-05-02T14:10:39.199Z,17.25
2019-05-02T14:13:07.298Z,17.15
2019-05-02T14:15:38.043Z,16.02
2019-05-02T14:18:07.293Z,16.55
2019-05-02T14:20:37.528Z,16.37
2019-05-02T14:23:07.181Z,15.05
2019-05-02T14:25:36.265Z,13.90
2019-05-02T14:28:05.458Z,13.00
2019-05-02T14:30:39.960Z,14.35
2019-05-02T14:33:07.246Z,11.90
2019-05-02T14:35:37.588Z,12.07
2019-05-02T14:38:09.941Z,11.65
2019-05-02T14:40:45.690Z,11.90
2019-05-02T14:43:16.453Z,12.07
2019-05-02T14:45:45.536Z,9.45
2019-05-02T14:48:21.456Z,10.20
2019-05-02T14:50:48.208Z,9.53
2019-05-02T14:53:22.123Z,10.30
2019-05-02T14:55:49.174Z,11.83
2019-05-02T14:58:17.954Z,12.33
2019-05-02T15:00:48.510Z,11.63
2019-05-02T15:03:19.206Z,11.13
2019-05-02T15:05:47.863Z,10.57
2019-05-02T15:08:16.706Z,11.33
2019-05-02T15:10:53.000Z,11.23
2019-05-02T15:13:16.017Z,10.07
2019-05-02T15:15:44.965Z,10.57
2019-05-02T15:18:17.476Z,9.57
2019-05-02T15:20:44.572Z,10.23
2019-05-02T15:23:19.602Z,11.35
2019-05-02T15:25:47.053Z,10.80
2019-05-02T15:28:22.859Z,10.93
2019-05-02T15:31:11.796Z,10.85
2019-05-02T15:33:42.731Z,10.70
2019-05-02T15:36:13.452Z,9.13
2019-05-02T15:38:47.283Z,9.68
2019-05-02T15:41:15.384Z,9.50
2019-05-02T15:43:44.494Z,9.13
2019-05-02T15:46:17.327Z,9.40
2019-05-02T15:48:44.689Z,9.20
2019-05-02T15:51:13.614Z,9.83
2019-05-02T15:54:06.077Z,8.03
2019-05-02T15:56:29.593Z,7.80
2019-05-02T15:59:03.392Z,7.60
2019-05-02T16:01:48.725Z,6.53
2019-05-02T16:04:24.054Z,6.77
2019-05-02T16:06:50.110Z,7.07
2019-05-02T16:09:36.679Z,5.80
2019-05-02T16:12:06.493Z,4.57
2019-05-02T16:14:36.059Z,4.27
2019-05-02T16:17:05.334Z,3.40
2019-05-02T16:19:35.747Z,2.47
2019-05-02T16:22:08.012Z,1.70
2019-05-02T16:24:36.972Z,1.43
2019-05-02T16:27:05.924Z,1.40
2019-05-02T16:29:34.696Z,1.60
2019-05-02T16:32:05.638Z,1.60
2019-05-02T16:34:36.148Z,1.83
2019-05-02T16:37:15.473Z,2.50
2019-05-02T16:39:42.630Z,2.27
2019-05-02T16:42:12.291Z,2.93
2019-05-02T16:44:42.913Z,3.73
2019-05-02T16:47:13.893Z,3.77
2019-05-02T16:49:43.202Z,4.28
2019-05-02T16:52:13.135Z,4.17
2019-05-02T16:54:43.826Z,4.53
2019-05-02T16:57:17.503Z,4.25
2019-05-02T16:59:43.848Z,5.12
2019-05-02T17:02:12.967Z,4.95
2019-05-02T17:04:42.739Z,4.67
2019-05-02T17:07:13.584Z,4.90
2019-05-02T17:09:43.996Z,5.27
2019-05-02T17:12:15.264Z,5.37
2019-05-02T17:14:51.598Z,4.80
2019-05-02T17:17:15.451Z,4.83
2019-05-02T17:19:44.521Z,6.20
2019-05-02T17:22:16.614Z,6.55
2019-05-02T17:24:44.443Z,6.55
2019-05-02T17:27:20.406Z,7.28
2019-05-02T17:29:44.414Z,7.83
2019-05-02T17:32:13.530Z,8.00
2019-05-02T17:34:42.609Z,8.33
2019-05-02T17:37:14.071Z,8.58
2019-05-02T17:39:45.983Z,8.03
2019-05-02T17:42:16.948Z,8.63
2019-05-02T17:44:44.193Z,8.43
2019-05-02T17:47:14.295Z,8.10
2019-05-02T17:49:43.565Z,7.50
2019-05-02T17:52:19.863Z,7.75
2019-05-02T17:54:45.173Z,8.08
2019-05-02T17:57:14.308Z,7.62
2019-05-02T17:59:43.447Z,6.53
2019-05-02T18:02:15.940Z,6.58
2019-05-02T18:04:46.598Z,6.80
2019-05-02T18:07:14.159Z,7.12
2019-05-02T18:09:43.354Z,7.83
2019-05-02T18:12:16.202Z,7.45
2019-05-02T18:14:45.090Z,7.60
2019-05-02T18:17:14.186Z,7.65
2019-05-02T18:19:43.286Z,7.42
2019-05-02T18:22:23.484Z,7.60
2019-05-02T18:24:46.340Z,8.00
2019-05-02T18:27:14.443Z,6.92
2019-05-02T18:29:45.609Z,7.72
2019-05-02T18:32:17.490Z,7.50
2019-05-02T18:34:45.271Z,8.58
2019-05-02T18:37:14.416Z,7.72
2019-05-02T18:39:49.724Z,7.53
2019-05-02T18:42:16.589Z,7.55
2019-05-02T18:44:48.214Z,7.70
2019-05-02T18:47:20.376Z,8.40
2019-05-02T18:49:47.094Z,8.43
2019-05-02T18:52:16.292Z,9.20
2019-05-02T18:54:47.350Z,8.60
2019-05-02T18:57:17.130Z,8.80
2019-05-02T18:59:47.162Z,7.90
2019-05-02T19:02:16.370Z,8.03
2019-05-02T19:04:45.528Z,8.78
2019-05-02T19:07:15.942Z,9.58
2019-05-02T19:09:51.167Z,8.48
2019-05-02T19:12:22.364Z,9.90
2019-05-02T19:14:46.974Z,10.30
2019-05-02T19:17:16.125Z,8.98
2019-05-02T19:19:45.269Z,9.85
2019-05-02T19:22:17.091Z,9.28
2019-05-02T19:24:45.198Z,10.70
2019-05-02T19:27:15.982Z,10.65
2019-05-02T19:29:48.087Z,10.72
2019-05-02T19:32:17.562Z,10.78
2019-05-02T19:34:46.929Z,10.88
2019-05-02T19:37:16.079Z,11.80
2019-05-02T19:39:48.792Z,11.08
2019-05-02T19:42:21.649Z,11.80
2019-05-02T19:44:47.929Z,10.98
2019-05-02T19:47:17.700Z,9.93
2019-05-02T19:49:51.729Z,10.72
2019-05-02T19:52:17.858Z,11.55
2019-05-02T19:54:47.158Z,10.72
2019-05-02T19:57:17.248Z,11.25
2019-05-02T19:59:47.117Z,12.40
2019-05-02T20:02:16.275Z,12.23
2019-05-02T20:04:45.423Z,11.63
2019-05-02T20:07:14.598Z,13.32
2019-05-02T20:09:47.141Z,18.02
2019-05-02T20:12:15.736Z,18.07
2019-05-02T20:14:47.560Z,19.82
2019-05-02T20:17:19.952Z,21.60
2019-05-02T20:19:48.479Z,22.70
2019-05-02T20:22:17.552Z,21.52
2019-05-02T20:24:55.386Z,22.30
2019-05-02T20:27:22.477Z,22.13
2019-05-02T20:29:52.234Z,22.58
2019-05-02T20:32:22.117Z,22.82
2019-05-02T20:34:51.478Z,24.15
2019-05-02T20:37:22.132Z,24.23
2019-05-02T20:39:51.425Z,24.63
2019-05-02T20:42:20.531Z,23.80
2019-05-02T20:44:49.740Z,23.52
2019-05-02T20:47:21.994Z,25.25
2019-05-02T20:49:51.847Z,24.23
2019-05-02T20:52:21.902Z,24.45
2019-05-02T20:54:52.407Z,24.27
2019-05-02T20:57:21.879Z,24.72
2019-05-02T20:59:52.485Z,25.68
2019-05-02T21:02:22.240Z,25.30
2019-05-02T21:04:52.259Z,25.20
2019-05-02T21:07:29.484Z,23.73
2019-05-02T21:10:02.948Z,24.75
2019-05-02T21:12:32.235Z,24.32
2019-05-02T21:15:01.774Z,23.22
2019-05-02T21:17:32.682Z,24.50
2019-05-02T21:20:02.058Z,23.45
2019-05-02T21:22:32.728Z,23.22
2019-05-02T21:25:02.449Z,22.10
2019-05-02T21:27:32.397Z,23.38
2019-05-02T21:30:02.662Z,22.77
2019-05-02T21:32:32.193Z,23.12
2019-05-02T21:35:02.748Z,22.70
2019-05-02T21:37:32.102Z,21.93
2019-05-02T21:40:02.781Z,21.68
2019-05-02T21:42:32.173Z,21.10
2019-05-02T21:45:02.424Z,21.15
2019-05-02T21:47:31.904Z,21.05
2019-05-02T21:50:05.764Z,20.15
2019-05-02T21:52:36.584Z,18.55
2019-05-02T21:55:12.391Z,19.80
2019-05-02T21:57:41.614Z,19.57
2019-05-02T22:00:15.648Z,18.77
2019-05-02T22:02:44.780Z,17.23
2019-05-02T22:05:14.057Z,19.00
2019-05-02T22:07:46.107Z,18.52
2019-05-02T22:10:15.449Z,17.35
2019-05-02T22:12:44.692Z,16.05
2019-05-02T22:15:13.951Z,15.72
2019-05-02T22:17:43.142Z,15.90
2019-05-02T22:20:12.423Z,15.65
2019-05-02T22:22:42.651Z,15.68
2019-05-02T22:25:12.045Z,15.58
2019-05-02T22:27:41.221Z,15.23
2019-05-02T22:30:12.337Z,15.18
2019-05-02T22:32:42.761Z,15.55
2019-05-02T22:35:12.299Z,15.60
2019-05-02T22:37:43.159Z,14.13
2019-05-02T22:40:18.531Z,14.83
2019-05-02T22:42:47.703Z,13.62
2019-05-02T22:45:16.887Z,14.73
2019-05-02T22:47:46.137Z,13.75
2019-05-02T22:50:15.246Z,13.98
2019-05-02T22:52:44.434Z,12.90
2019-05-02T22:55:13.752Z,13.22
2019-05-02T22:57:43.949Z,12.82
2019-05-02T23:00:13.982Z,12.33
2019-05-02T23:02:43.179Z,12.65
2019-05-02T23:05:12.517Z,12.75
2019-05-02T23:07:41.976Z,12.60
2019-05-02T23:10:12.675Z,12.18
2019-05-02T23:12:42.411Z,13.03
2019-05-02T23:15:12.585Z,12.15
2019-05-02T23:17:42.775Z,12.28
2019-05-02T23:20:12.839Z,13.18
2019-05-02T23:22:42.062Z,13.30
2019-05-02T23:25:14.306Z,12.98
2019-05-02T23:27:48.049Z,13.15
2019-05-02T23:30:19.433Z,13.25
2019-05-02T23:32:48.594Z,14.13
2019-05-02T23:35:17.787Z,13.40
2019-05-02T23:37:46.950Z,13.95
2019-05-02T23:40:16.384Z,12.53
2019-05-02T23:42:45.550Z,12.90
2019-05-02T23:45:14.994Z,12.03
2019-05-02T23:47:45.834Z,11.00
2019-05-02T23:50:15.347Z,11.50
2019-05-02T23:52:44.543Z,11.45
2019-05-02T23:55:13.816Z,11.48
2019-05-02T23:57:43.023Z,10.82
